createdAt,value
2023-03-29T00:00:24.333Z,99225.47
2023-03-29T00:02:51.581Z,99239.91
2023-03-29T00:05:25.575Z,99236.41
2023-03-29T00:07:54.395Z,99233.91
2023-03-29T00:10:26.562Z,99223.28
2023-03-29T00:12:53.464Z,99223.06
2023-03-29T00:15:21.081Z,99225.38
2023-03-29T00:17:48.063Z,99224.34
2023-03-29T00:20:14.968Z,99221.78
2023-03-29T00:22:42.507Z,99239.28
2023-03-29T00:25:12.120Z,99224.19
2023-03-29T00:27:39.310Z,99223.81
2023-03-29T00:30:08.347Z,99216.44
2023-03-29T00:32:35.315Z,99211.78
2023-03-29T00:35:02.243Z,99214.94
2023-03-29T00:37:30.077Z,99216.19
2023-03-29T00:39:57.678Z,99219.16
2023-03-29T00:42:25.788Z,99203.19
2023-03-29T00:44:58.478Z,99207.50
2023-03-29T00:47:29.359Z,99212.25
2023-03-29T00:50:00.405Z,99209.34
2023-03-29T00:52:30.346Z,99210.63
2023-03-29T00:54:59.467Z,99210.09
2023-03-29T00:57:29.284Z,99201.91
2023-03-29T00:59:57.236Z,99205.09
2023-03-29T01:02:26.358Z,99206.31
2023-03-29T01:05:00.163Z,99203.56
2023-03-29T01:07:35.397Z,99210.88
2023-03-29T01:10:09.345Z,99199.41
2023-03-29T01:12:41.135Z,99201.88
2023-03-29T01:15:14.127Z,99197.72
2023-03-29T01:17:44.448Z,99197.41
2023-03-29T01:20:20.226Z,99185.84
2023-03-29T01:22:56.478Z,99187.28
2023-03-29T01:25:42.135Z,99185.03
2023-03-29T01:28:13.265Z,99175.47
2023-03-29T01:30:39.996Z,99177.06
2023-03-29T01:33:23.500Z,99182.59
2023-03-29T01:36:09.301Z,99171.09
2023-03-29T01:38:53.012Z,99172.50
2023-03-29T01:41:20.278Z,99171.63
2023-03-29T01:43:52.990Z,99164.25
2023-03-29T01:46:42.200Z,99166.59
2023-03-29T01:49:37.659Z,99173.28
2023-03-29T01:52:15.700Z,99178.97
2023-03-29T01:55:05.594Z,99175.69
2023-03-29T01:57:33.548Z,99168.19
2023-03-29T02:00:00.869Z,99166.94
2023-03-29T02:02:29.913Z,99166.59
2023-03-29T02:04:57.774Z,99157.47
2023-03-29T02:07:30.795Z,99152.78
2023-03-29T02:09:58.400Z,99151.94
2023-03-29T02:12:25.353Z,99148.41
2023-03-29T02:14:54.042Z,99142.19
2023-03-29T02:17:23.153Z,99145.69
2023-03-29T02:20:14.193Z,99137.28
2023-03-29T02:23:05.289Z,99128.97
2023-03-29T02:25:32.699Z,99136.59
2023-03-29T02:28:01.409Z,99140.38
2023-03-29T02:30:42.091Z,99145.06
2023-03-29T02:33:16.964Z,99151.50
2023-03-29T02:35:53.333Z,99151.75
2023-03-29T02:38:21.814Z,99148.28
2023-03-29T02:40:48.720Z,99142.31
2023-03-29T02:43:16.727Z,99145.88
2023-03-29T02:45:44.569Z,99151.13
2023-03-29T02:48:16.372Z,99158.31
2023-03-29T02:50:45.330Z,99160.97
2023-03-29T02:53:18.180Z,99150.53
2023-03-29T02:55:47.205Z,99153.53
2023-03-29T02:58:15.617Z,99152.03
2023-03-29T03:00:46.078Z,99154.78
2023-03-29T03:03:13.389Z,99160.84
2023-03-29T03:05:40.541Z,99153.09
2023-03-29T03:08:07.661Z,99148.94
2023-03-29T03:10:35.305Z,99155.16
2023-03-29T03:13:04.098Z,99163.78
2023-03-29T03:15:35.832Z,99151.03
2023-03-29T03:18:03.731Z,99155.09
2023-03-29T03:20:31.293Z,99149.44
2023-03-29T03:22:58.593Z,99151.75
2023-03-29T03:25:25.704Z,99146.34
2023-03-29T03:27:53.260Z,99148.56
2023-03-29T03:30:22.934Z,99132.97
2023-03-29T03:33:12.967Z,99124.16
2023-03-29T03:35:42.704Z,99118.88
2023-03-29T03:38:10.920Z,99125.03
2023-03-29T03:40:38.460Z,99127.06
2023-03-29T03:43:05.356Z,99118.50
2023-03-29T03:45:32.240Z,99120.81
2023-03-29T03:48:07.361Z,99113.03
2023-03-29T03:51:00.899Z,99106.28
2023-03-29T03:53:32.714Z,99096.91
2023-03-29T03:56:15.239Z,99104.97
2023-03-29T03:58:57.451Z,99096.25
2023-03-29T04:01:27.469Z,99087.13
2023-03-29T04:04:09.467Z,99088.69
2023-03-29T04:06:37.885Z,99085.88
2023-03-29T04:09:27.776Z,99092.69
2023-03-29T04:12:09.581Z,99085.75
2023-03-29T04:14:37.982Z,99076.25
2023-03-29T04:17:07.314Z,99074.97
2023-03-29T04:19:48.708Z,99078.56
2023-03-29T04:22:15.961Z,99087.66
2023-03-29T04:24:43.340Z,99093.22
2023-03-29T04:27:36.902Z,99097.41
2023-03-29T04:30:10.994Z,99100.97
2023-03-29T04:33:04.316Z,99101.63
2023-03-29T04:35:32.511Z,99098.13
2023-03-29T04:37:59.549Z,99104.06
2023-03-29T04:40:26.555Z,99096.84
2023-03-29T04:43:03.893Z,99091.50
2023-03-29T04:45:31.556Z,99094.06
2023-03-29T04:48:08.557Z,99089.78
2023-03-29T04:50:38.029Z,99092.59
2023-03-29T04:53:06.011Z,99092.00
2023-03-29T04:55:33.607Z,99081.75
2023-03-29T04:58:02.862Z,99083.22
2023-03-29T05:00:40.192Z,99084.16
2023-03-29T05:03:28.724Z,99083.31
2023-03-29T05:06:09.100Z,99076.81
2023-03-29T05:08:39.346Z,99080.13
2023-03-29T05:11:17.736Z,99074.78
2023-03-29T05:13:44.622Z,99073.63
2023-03-29T05:16:11.598Z,99067.47
2023-03-29T05:18:39.106Z,99077.38
2023-03-29T05:21:06.508Z,99072.38
2023-03-29T05:23:36.273Z,99084.09
2023-03-29T05:26:22.724Z,99074.16
2023-03-29T05:28:52.752Z,99075.81
2023-03-29T05:31:20.019Z,99076.75
2023-03-29T05:33:51.034Z,99075.97
2023-03-29T05:36:19.381Z,99069.34
2023-03-29T05:38:49.344Z,99070.88
2023-03-29T05:41:17.901Z,99076.91
2023-03-29T05:44:03.235Z,99075.66
2023-03-29T05:46:31.037Z,99069.00
2023-03-29T05:49:02.534Z,99073.19
2023-03-29T05:51:58.859Z,99073.31
2023-03-29T05:54:27.479Z,99071.00
2023-03-29T05:56:54.941Z,99075.75
2023-03-29T05:59:23.688Z,99074.59
2023-03-29T06:01:52.069Z,99069.34
2023-03-29T06:04:21.268Z,99075.28
2023-03-29T06:07:07.233Z,99067.50
2023-03-29T06:09:35.390Z,99071.22
2023-03-29T06:12:04.375Z,99074.00
2023-03-29T06:14:48.373Z,99071.09
2023-03-29T06:17:28.168Z,99065.88
2023-03-29T06:19:55.226Z,99070.19
2023-03-29T06:22:24.954Z,99075.06
2023-03-29T06:24:52.286Z,99076.34
2023-03-29T06:27:29.354Z,99074.38
2023-03-29T06:29:56.808Z,99075.28
2023-03-29T06:32:23.836Z,99075.84
2023-03-29T06:34:57.228Z,99076.34
2023-03-29T06:37:32.678Z,99074.38
2023-03-29T06:40:19.698Z,99072.63
2023-03-29T06:42:47.795Z,99078.41
2023-03-29T06:45:32.696Z,99070.66
2023-03-29T06:48:03.429Z,99070.19
2023-03-29T06:50:31.215Z,99072.94
2023-03-29T06:53:09.678Z,99065.31
2023-03-29T06:55:36.538Z,99066.34
2023-03-29T06:58:29.493Z,99063.22
2023-03-29T07:01:05.377Z,99066.81
2023-03-29T07:03:49.984Z,99057.75
2023-03-29T07:06:22.429Z,99063.41
2023-03-29T07:08:52.556Z,99060.31
2023-03-29T07:11:36.984Z,99057.41
2023-03-29T07:14:23.405Z,99045.53
2023-03-29T07:16:52.894Z,99055.16
2023-03-29T07:19:30.317Z,99053.44
2023-03-29T07:22:26.698Z,99053.19
2023-03-29T07:25:00.188Z,99047.38
2023-03-29T07:27:27.618Z,99035.88
2023-03-29T07:29:54.460Z,99031.69
2023-03-29T07:32:21.493Z,99010.91
2023-03-29T07:34:59.681Z,99022.03
2023-03-29T07:37:37.522Z,99012.28
2023-03-29T07:40:26.566Z,99005.28
2023-03-29T07:42:57.242Z,99005.97
2023-03-29T07:45:28.119Z,99019.16
2023-03-29T07:48:01.515Z,99014.81
2023-03-29T07:50:42.087Z,98998.50
2023-03-29T07:53:09.644Z,98998.72
2023-03-29T07:55:36.646Z,98996.84
2023-03-29T07:58:17.422Z,99003.41
2023-03-29T08:00:44.397Z,99007.47
2023-03-29T08:03:31.473Z,99010.06
2023-03-29T08:06:02.156Z,99013.44
2023-03-29T08:08:29.050Z,99018.38
2023-03-29T08:11:00.891Z,99007.34
2023-03-29T08:13:36.554Z,99007.97
2023-03-29T08:16:21.735Z,99002.38
2023-03-29T08:18:55.684Z,99003.59
2023-03-29T08:21:27.587Z,99007.03
2023-03-29T08:23:54.499Z,99004.59
2023-03-29T08:26:26.015Z,98991.66
2023-03-29T08:28:54.214Z,98989.66
2023-03-29T08:31:23.540Z,98980.09
2023-03-29T08:33:51.693Z,98977.75
2023-03-29T08:36:41.397Z,98971.69
2023-03-29T08:39:16.888Z,98966.88
2023-03-29T08:41:57.843Z,98973.22
2023-03-29T08:44:31.101Z,98969.56
2023-03-29T08:47:08.967Z,98965.88
2023-03-29T08:49:44.086Z,98965.41
2023-03-29T08:52:23.619Z,98957.00
2023-03-29T08:54:53.663Z,98959.22
2023-03-29T08:57:49.342Z,98961.41
2023-03-29T09:01:06.241Z,98960.28
2023-03-29T09:04:04.976Z,98966.59
2023-03-29T09:06:55.685Z,98958.06
2023-03-29T09:09:33.367Z,98959.66
2023-03-29T09:12:30.537Z,98954.31
2023-03-29T09:15:00.399Z,98953.91
2023-03-29T09:17:49.721Z,98953.66
2023-03-29T09:20:48.284Z,98946.78
2023-03-29T09:23:38.938Z,98945.06
2023-03-29T09:26:31.754Z,98933.91
2023-03-29T09:29:15.460Z,98927.03
2023-03-29T09:31:45.553Z,98930.88
2023-03-29T09:34:15.329Z,98930.63
2023-03-29T09:37:04.061Z,98923.06
2023-03-29T09:39:31.168Z,98919.59
2023-03-29T09:42:12.030Z,98922.31
2023-03-29T09:44:44.153Z,98926.31
2023-03-29T09:47:25.051Z,98926.44
2023-03-29T09:49:57.213Z,98913.47
2023-03-29T09:52:24.151Z,98907.94
2023-03-29T09:55:03.850Z,98920.22
2023-03-29T09:57:50.283Z,98902.81
2023-03-29T10:00:19.708Z,98909.94
2023-03-29T10:02:53.865Z,98902.72
2023-03-29T10:05:28.390Z,98896.56
2023-03-29T10:07:58.915Z,98900.50
2023-03-29T10:10:30.786Z,98887.13
2023-03-29T10:13:01.326Z,98895.75
2023-03-29T10:15:30.270Z,98899.03
2023-03-29T10:18:10.912Z,98901.66
2023-03-29T10:20:40.071Z,98891.09
2023-03-29T10:23:09.145Z,98884.22
2023-03-29T10:25:42.441Z,98878.53
2023-03-29T10:28:21.230Z,98879.66
2023-03-29T10:30:54.387Z,98884.13
2023-03-29T10:33:24.139Z,98873.25
2023-03-29T10:35:51.706Z,98869.50
2023-03-29T10:38:20.949Z,98861.53
2023-03-29T10:40:52.036Z,98870.16
2023-03-29T10:43:24.783Z,98869.59
2023-03-29T10:45:56.414Z,98864.25
2023-03-29T10:48:30.659Z,98865.88
2023-03-29T10:51:01.759Z,98864.06
2023-03-29T10:53:32.741Z,98865.88
2023-03-29T10:56:12.828Z,98857.91
2023-03-29T10:59:15.079Z,98852.84
2023-03-29T11:02:03.884Z,98853.59
2023-03-29T11:04:34.750Z,98855.81
2023-03-29T11:07:31.805Z,98838.00
2023-03-29T11:10:06.150Z,98835.19
2023-03-29T11:12:48.160Z,98826.59
2023-03-29T11:15:17.813Z,98824.44
2023-03-29T11:17:55.989Z,98823.22
2023-03-29T11:20:28.749Z,98824.47
2023-03-29T11:23:13.557Z,98820.44
2023-03-29T11:25:49.784Z,98830.38
2023-03-29T11:28:28.828Z,98828.63
2023-03-29T11:31:10.169Z,98816.59
2023-03-29T11:33:43.236Z,98807.09
2023-03-29T11:36:17.777Z,98796.47
2023-03-29T11:39:04.287Z,98791.66
2023-03-29T11:41:34.736Z,98793.91
2023-03-29T11:44:05.795Z,98781.34
2023-03-29T11:46:50.841Z,98780.09
2023-03-29T11:49:27.838Z,98786.53
2023-03-29T11:52:30.162Z,98792.22
2023-03-29T11:55:08.268Z,98774.72
2023-03-29T11:57:40.994Z,98772.78
2023-03-29T12:00:24.558Z,98772.16
2023-03-29T12:02:55.300Z,98779.56
2023-03-29T12:05:27.459Z,98773.84
2023-03-29T12:08:01.630Z,98769.63
2023-03-29T12:10:34.887Z,98768.88
2023-03-29T12:13:22.819Z,98756.88
2023-03-29T12:16:01.408Z,98768.16
2023-03-29T12:18:37.117Z,98763.59
2023-03-29T12:21:09.357Z,98754.91
2023-03-29T12:23:36.604Z,98745.00
2023-03-29T12:26:12.744Z,98738.84
2023-03-29T12:29:24.597Z,98738.56
2023-03-29T12:31:54.589Z,98712.34
2023-03-29T12:34:31.147Z,98714.31
2023-03-29T12:37:13.973Z,98719.94
2023-03-29T12:40:18.141Z,98722.03
2023-03-29T12:43:25.390Z,98703.56
2023-03-29T12:46:16.531Z,98702.78
2023-03-29T12:48:45.041Z,98703.34
2023-03-29T12:51:23.526Z,98690.72
2023-03-29T12:54:02.512Z,98683.75
2023-03-29T12:56:39.945Z,98676.50
2023-03-29T12:59:23.373Z,98675.91
2023-03-29T13:02:30.428Z,98679.66
2023-03-29T13:05:00.382Z,98670.06
2023-03-29T13:07:52.808Z,98658.00
2023-03-29T13:10:36.265Z,98648.88
2023-03-29T13:13:17.092Z,98646.66
2023-03-29T13:15:45.660Z,98643.72
2023-03-29T13:18:34.292Z,98645.66
2023-03-29T13:21:06.908Z,98631.97
2023-03-29T13:23:49.168Z,98624.66
2023-03-29T13:26:24.052Z,98615.28
2023-03-29T13:29:21.115Z,98614.75
2023-03-29T13:32:14.427Z,98607.75
2023-03-29T13:35:07.568Z,98598.63
2023-03-29T13:37:44.442Z,98589.97
2023-03-29T13:40:29.993Z,98596.16
2023-03-29T13:43:20.044Z,98595.13
2023-03-29T13:45:59.047Z,98590.31
2023-03-29T13:48:35.239Z,98601.00
2023-03-29T13:51:03.361Z,98588.38
2023-03-29T13:53:36.565Z,98595.59
2023-03-29T13:56:04.139Z,98587.22
2023-03-29T13:58:51.321Z,98577.66
2023-03-29T14:01:43.753Z,98577.59
2023-03-29T14:04:16.310Z,98581.31
2023-03-29T14:06:49.032Z,98575.69
2023-03-29T14:09:18.508Z,98575.19
2023-03-29T14:11:47.357Z,98558.78
2023-03-29T14:14:14.891Z,98564.91
2023-03-29T14:16:42.376Z,98558.72
2023-03-29T14:19:16.014Z,98548.53
2023-03-29T14:21:43.892Z,98545.31
2023-03-29T14:24:13.189Z,98537.56
2023-03-29T14:26:44.884Z,98536.75
2023-03-29T14:29:12.194Z,98533.78
2023-03-29T14:31:41.448Z,98530.84
2023-03-29T14:34:28.820Z,98524.97
2023-03-29T14:36:55.757Z,98518.53
2023-03-29T14:39:23.548Z,98512.91
2023-03-29T14:41:52.513Z,98504.84
2023-03-29T14:44:21.884Z,98510.94
2023-03-29T14:46:49.115Z,98505.88
2023-03-29T14:49:17.633Z,98502.97
2023-03-29T14:51:45.575Z,98500.59
2023-03-29T14:54:27.300Z,98500.59
2023-03-29T14:56:55.067Z,98496.34
2023-03-29T14:59:27.889Z,98496.41
2023-03-29T15:01:54.860Z,98480.06
2023-03-29T15:04:21.773Z,98474.16
2023-03-29T15:06:50.843Z,98470.13
2023-03-29T15:09:27.562Z,98467.97
2023-03-29T15:11:56.384Z,98460.47
2023-03-29T15:14:24.759Z,98450.28
2023-03-29T15:16:53.516Z,98442.25
2023-03-29T15:19:21.977Z,98438.22
2023-03-29T15:21:50.011Z,98433.94
2023-03-29T15:24:31.220Z,98420.78
2023-03-29T15:27:00.250Z,98428.84
2023-03-29T15:29:35.384Z,98411.94
2023-03-29T15:32:02.336Z,98404.97
2023-03-29T15:34:33.440Z,98391.28
2023-03-29T15:37:00.666Z,98376.84
2023-03-29T15:39:28.775Z,98370.13
2023-03-29T15:41:56.932Z,98365.56
2023-03-29T15:44:29.438Z,98355.63
2023-03-29T15:46:57.809Z,98355.59
2023-03-29T15:49:25.162Z,98349.97
2023-03-29T15:51:55.731Z,98345.97
2023-03-29T15:54:24.476Z,98343.25
2023-03-29T15:56:54.279Z,98334.41
2023-03-29T15:59:21.757Z,98347.22
2023-03-29T16:01:48.865Z,98334.94
2023-03-29T16:04:17.883Z,98331.69
2023-03-29T16:06:46.985Z,98326.63
2023-03-29T16:09:13.927Z,98313.22
2023-03-29T16:11:42.008Z,98310.03
2023-03-29T16:14:27.138Z,98304.16
2023-03-29T16:17:01.126Z,98289.94
2023-03-29T16:19:29.638Z,98291.00
2023-03-29T16:21:57.206Z,98283.25
2023-03-29T16:24:26.287Z,98277.06
2023-03-29T16:26:55.636Z,98288.31
2023-03-29T16:29:23.941Z,98285.38
2023-03-29T16:31:51.217Z,98278.94
2023-03-29T16:34:19.340Z,98268.47
2023-03-29T16:36:49.253Z,98256.94
2023-03-29T16:39:17.433Z,98247.56
2023-03-29T16:41:45.365Z,98256.69
2023-03-29T16:44:21.789Z,98254.25
2023-03-29T16:46:51.656Z,98263.91
2023-03-29T16:49:18.477Z,98251.31
2023-03-29T16:51:48.382Z,98255.06
2023-03-29T16:54:15.716Z,98256.94
2023-03-29T16:56:42.880Z,98240.03
2023-03-29T16:59:09.834Z,98234.97
2023-03-29T17:01:37.360Z,98243.00
2023-03-29T17:04:04.879Z,98228.25
2023-03-29T17:06:32.781Z,98219.44
2023-03-29T17:09:00.785Z,98219.44
2023-03-29T17:11:28.440Z,98211.41
2023-03-29T17:13:55.776Z,98207.34
2023-03-29T17:16:23.065Z,98196.63
2023-03-29T17:18:49.986Z,98195.31
2023-03-29T17:21:16.876Z,98201.47
2023-03-29T17:23:43.730Z,98202.81
2023-03-29T17:26:11.973Z,98206.00
2023-03-29T17:28:38.887Z,98206.81
2023-03-29T17:31:09.928Z,98202.81
2023-03-29T17:33:37.060Z,98188.59
2023-03-29T17:36:05.739Z,98185.66
2023-03-29T17:38:34.337Z,98190.75
2023-03-29T17:41:02.823Z,98185.38
2023-03-29T17:43:29.919Z,98181.91
2023-03-29T17:45:56.966Z,98166.91
2023-03-29T17:48:24.394Z,98163.41
2023-03-29T17:50:51.533Z,98168.25
2023-03-29T17:53:18.361Z,98162.88
2023-03-29T17:55:45.250Z,98172.00
2023-03-29T17:58:12.313Z,98172.81
2023-03-29T18:00:39.080Z,98171.22
2023-03-29T18:03:05.977Z,98167.19
2023-03-29T18:05:34.498Z,98173.06
2023-03-29T18:08:01.415Z,98157.50
2023-03-29T18:10:28.281Z,98161.81
2023-03-29T18:12:55.101Z,98155.91
2023-03-29T18:15:22.046Z,98139.31
2023-03-29T18:17:48.900Z,98117.31
2023-03-29T18:20:16.462Z,98136.38
2023-03-29T18:22:44.545Z,98142.00
2023-03-29T18:25:11.418Z,98139.31
2023-03-29T18:27:39.027Z,98135.03
2023-03-29T18:30:08.752Z,98135.28
2023-03-29T18:32:36.377Z,98127.81
2023-03-29T18:35:03.686Z,98126.44
2023-03-29T18:37:30.505Z,98124.56
2023-03-29T18:39:57.420Z,98120.31
2023-03-29T18:42:24.272Z,98120.31
2023-03-29T18:44:51.413Z,98120.00
2023-03-29T18:47:21.337Z,98116.28
2023-03-29T18:49:48.188Z,98117.09
2023-03-29T18:52:14.928Z,98106.38
2023-03-29T18:54:41.881Z,98110.94
2023-03-29T18:57:08.933Z,98107.97
2023-03-29T18:59:38.723Z,98111.72
2023-03-29T19:02:05.633Z,98107.44
2023-03-29T19:04:32.526Z,98113.84
2023-03-29T19:07:01.399Z,98109.31
2023-03-29T19:09:28.244Z,98106.38
2023-03-29T19:11:55.006Z,98096.75
2023-03-29T19:14:24.272Z,98093.53
2023-03-29T19:16:52.361Z,98089.50
2023-03-29T19:19:19.424Z,98082.28
2023-03-29T19:21:49.652Z,98087.09
2023-03-29T19:24:16.948Z,98082.81
2023-03-29T19:26:44.523Z,98073.19
2023-03-29T19:29:11.759Z,98078.53
2023-03-29T19:31:38.972Z,98067.53
2023-03-29T19:34:07.105Z,98062.47
2023-03-29T19:36:33.985Z,98061.41
2023-03-29T19:39:00.993Z,98057.38
2023-03-29T19:41:28.313Z,98059.78
2023-03-29T19:43:55.274Z,98044.00
2023-03-29T19:46:22.505Z,98061.41
2023-03-29T19:48:49.667Z,98058.44
2023-03-29T19:51:16.834Z,98059.25
2023-03-29T19:53:43.720Z,98045.06
2023-03-29T19:56:11.088Z,98045.59
2023-03-29T19:58:38.066Z,98037.28
2023-03-29T20:01:05.102Z,98042.13
2023-03-29T20:03:34.226Z,98042.38
2023-03-29T20:06:01.396Z,98043.97
2023-03-29T20:08:28.238Z,98031.66
2023-03-29T20:11:14.442Z,98024.97
2023-03-29T20:13:42.530Z,98021.22
2023-03-29T20:16:11.786Z,98015.03
2023-03-29T20:18:39.003Z,98024.41
2023-03-29T20:21:07.422Z,98014.78
2023-03-29T20:23:34.725Z,98005.09
2023-03-29T20:26:01.562Z,98014.75
2023-03-29T20:28:28.444Z,98022.81
2023-03-29T20:30:55.415Z,98027.38
2023-03-29T20:33:22.435Z,98024.97
2023-03-29T20:35:49.615Z,98030.84
2023-03-29T20:38:16.474Z,98039.69
2023-03-29T20:40:44.971Z,98046.66
2023-03-29T20:43:13.735Z,98038.88
2023-03-29T20:45:52.803Z,98036.47
2023-03-29T20:48:23.604Z,98023.09
2023-03-29T20:50:50.940Z,98021.72
2023-03-29T20:53:18.538Z,98024.41
2023-03-29T20:55:45.433Z,98011.81
2023-03-29T20:58:12.612Z,98022.00
2023-03-29T21:00:40.478Z,98011.31
2023-03-29T21:03:08.552Z,98004.34
2023-03-29T21:05:35.774Z,97996.81
2023-03-29T21:08:04.502Z,98011.31
2023-03-29T21:10:31.980Z,98001.66
2023-03-29T21:13:02.861Z,98006.47
2023-03-29T21:15:30.807Z,98027.88
2023-03-29T21:17:58.387Z,98023.31
2023-03-29T21:20:25.678Z,98018.47
2023-03-29T21:22:53.131Z,98014.44
2023-03-29T21:25:20.048Z,98010.44
2023-03-29T21:27:46.956Z,98008.84
2023-03-29T21:30:14.203Z,98009.34
2023-03-29T21:32:41.273Z,98008.53
2023-03-29T21:35:09.164Z,98012.81
2023-03-29T21:37:36.118Z,98001.84
2023-03-29T21:40:05.978Z,97997.78
2023-03-29T21:42:34.012Z,97979.28
2023-03-29T21:45:01.944Z,97984.66
2023-03-29T21:47:29.702Z,97984.09
2023-03-29T21:49:56.707Z,97991.63
2023-03-29T21:52:23.633Z,97981.72
2023-03-29T21:54:50.658Z,97979.81
2023-03-29T21:57:17.727Z,97979.03
2023-03-29T21:59:44.818Z,97977.13
2023-03-29T22:02:11.807Z,97976.84
2023-03-29T22:05:31.317Z,97975.81
2023-03-29T22:07:58.897Z,97986.19
2023-03-29T22:10:25.989Z,97979.53
2023-03-29T22:12:53.329Z,97976.63
2023-03-29T22:15:20.786Z,97990.81
2023-03-29T22:17:48.004Z,97984.59
2023-03-29T22:20:15.216Z,97979.28
2023-03-29T22:22:49.860Z,97977.63
2023-03-29T22:25:18.052Z,97976.81
2023-03-29T22:28:24.713Z,97967.91
2023-03-29T22:30:51.625Z,97963.19
2023-03-29T22:33:18.425Z,97962.09
2023-03-29T22:35:45.285Z,97964.03
2023-03-29T22:38:12.224Z,97965.13
2023-03-29T22:40:40.869Z,97954.44
2023-03-29T22:44:03.687Z,97956.03
2023-03-29T22:46:30.632Z,97953.16
2023-03-29T22:48:57.510Z,97950.44
2023-03-29T22:51:24.349Z,97950.75
2023-03-29T22:53:51.590Z,97946.47
2023-03-29T22:56:19.550Z,97950.78
2023-03-29T22:58:46.556Z,97943.56
2023-03-29T23:01:13.508Z,97944.94
2023-03-29T23:03:40.582Z,97949.75
2023-03-29T23:06:07.818Z,97951.88
2023-03-29T23:08:35.374Z,97948.38
2023-03-29T23:11:03.369Z,97939.28
2023-03-29T23:13:30.730Z,97937.69
2023-03-29T23:15:59.353Z,97935.81
2023-03-29T23:18:28.664Z,97937.69
2023-03-29T23:20:56.792Z,97940.38
2023-03-29T23:23:25.630Z,97942.25
2023-03-29T23:25:53.377Z,97937.97
2023-03-29T23:28:23.576Z,97940.63
2023-03-29T23:31:11.629Z,97932.59
2023-03-29T23:33:41.336Z,97928.59
2023-03-29T23:36:11.536Z,97923.00
2023-03-29T23:38:39.882Z,97923.53
2023-03-29T23:41:08.651Z,97919.25
2023-03-29T23:43:40.494Z,97921.41
2023-03-29T23:46:12.435Z,97924.06
2023-03-29T23:49:36.313Z,97913.09
2023-03-29T23:52:03.224Z,97916.03
2023-03-29T23:54:30.134Z,97921.91
2023-03-29T23:56:57.213Z,97927.00
2023-03-29T23:59:28.914Z,97927.28
